createdAt,value
2022-08-05T00:00:52.535Z,98221.52
2022-08-05T00:03:56.832Z,98218.45
2022-08-05T00:07:00.379Z,98213.99
2022-08-05T00:10:27.137Z,98214.58
2022-08-05T00:13:39.354Z,98212.16
2022-08-05T00:16:52.151Z,98210.52
2022-08-05T00:20:02.444Z,98207.67
2022-08-05T00:23:12.917Z,98201.34
2022-08-05T00:26:17.252Z,98206.02
2022-08-05T00:29:25.420Z,98205.93
2022-08-05T00:32:28.701Z,98203.48
2022-08-05T00:35:33.305Z,98204.52
2022-08-05T00:38:36.865Z,98203.75
2022-08-05T00:41:46.767Z,98200.42
2022-08-05T00:44:55.635Z,98199.29
2022-08-05T00:48:05.636Z,98197.81
2022-08-05T00:51:50.559Z,98196.91
2022-08-05T00:54:31.814Z,98197.85
2022-08-05T00:57:38.257Z,98194.03
2022-08-05T01:00:57.693Z,98192.16
2022-08-05T01:04:01.315Z,98188.22
2022-08-05T01:07:05.113Z,98184.36
2022-08-05T01:10:13.625Z,98186.63
2022-08-05T01:14:00.334Z,98184.55
2022-08-05T01:17:10.783Z,98181.59
2022-08-05T01:20:22.500Z,98177.70
2022-08-05T01:23:34.794Z,98177.08
2022-08-05T01:27:19.707Z,98171.30
2022-08-05T01:30:34.041Z,98166.55
2022-08-05T01:34:01.998Z,98168.73
2022-08-05T01:37:25.092Z,98165.00
2022-08-05T01:40:30.752Z,98163.43
2022-08-05T01:43:35.815Z,98157.52
2022-08-05T01:46:42.488Z,98158.31
2022-08-05T01:50:01.426Z,98156.33
2022-08-05T01:53:11.953Z,98153.28
2022-08-05T01:58:11.869Z,98155.70
2022-08-05T01:59:47.224Z,98150.19
2022-08-05T02:02:55.403Z,98152.67
2022-08-05T02:06:00.843Z,98151.19
2022-08-05T02:09:05.725Z,98147.14
2022-08-05T02:12:17.014Z,98146.72
2022-08-05T02:15:25.644Z,98144.02
2022-08-05T02:18:42.694Z,98144.01
2022-08-05T02:21:52.967Z,98145.34
2022-08-05T02:25:06.353Z,98139.22
2022-08-05T02:28:13.725Z,98143.42
2022-08-05T02:31:24.612Z,98138.58
2022-08-05T02:34:31.561Z,98133.16
2022-08-05T02:37:35.948Z,98136.14
2022-08-05T02:40:42.783Z,98127.63
2022-08-05T02:44:02.662Z,98126.64
2022-08-05T02:47:13.128Z,98126.87
2022-08-05T02:50:19.008Z,98127.48
2022-08-05T02:53:22.405Z,98131.20
2022-08-05T02:56:27.372Z,98123.69
2022-08-05T02:59:31.258Z,98121.11
2022-08-05T03:02:52.728Z,98121.56
2022-08-05T03:06:55.218Z,98122.14
2022-08-05T03:09:27.208Z,98118.02
2022-08-05T03:12:41.353Z,98116.80
2022-08-05T03:15:48.084Z,98120.89
2022-08-05T03:18:54.809Z,98117.89
2022-08-05T03:21:57.710Z,98114.80
2022-08-05T03:25:11.522Z,98116.88
2022-08-05T03:28:27.435Z,98114.03
2022-08-05T03:31:57.045Z,98114.00
2022-08-05T03:34:54.520Z,98117.38
2022-08-05T03:37:59.260Z,98111.20
2022-08-05T03:41:08.282Z,98112.99
2022-08-05T03:44:13.801Z,98112.52
2022-08-05T03:47:23.191Z,98111.58
2022-08-05T03:50:33.760Z,98112.10
2022-08-05T03:55:54.776Z,98112.01
2022-08-05T03:57:15.961Z,98111.80
2022-08-05T04:00:25.980Z,98114.50
2022-08-05T04:03:35.915Z,98114.02
2022-08-05T04:06:47.418Z,98112.29
2022-08-05T04:09:53.585Z,98113.83
2022-08-05T04:12:58.836Z,98110.61
2022-08-05T04:16:04.506Z,98109.39
2022-08-05T04:19:11.799Z,98109.98
2022-08-05T04:22:15.842Z,98106.19
2022-08-05T04:25:56.428Z,98099.49
2022-08-05T04:28:51.982Z,98099.98
2022-08-05T04:31:56.855Z,98099.61
2022-08-05T04:35:00.264Z,98097.32
2022-08-05T04:38:06.739Z,98103.38
2022-08-05T04:41:10.424Z,98104.70
2022-08-05T04:44:14.125Z,98104.24
2022-08-05T04:47:20.203Z,98102.26
2022-08-05T04:50:37.309Z,98103.72
2022-08-05T04:53:46.440Z,98096.16
2022-08-05T04:56:49.336Z,98095.70
2022-08-05T04:59:52.272Z,98092.91
2022-08-05T05:02:56.593Z,98096.80
2022-08-05T05:06:38.883Z,98095.70
2022-08-05T05:09:25.769Z,98093.76
2022-08-05T05:12:29.255Z,98096.23
2022-08-05T05:15:58.733Z,98093.27
2022-08-05T05:19:17.585Z,98095.27
2022-08-05T05:22:23.782Z,98098.23
2022-08-05T05:25:40.287Z,98097.90
2022-08-05T05:28:44.887Z,98098.49
2022-08-05T05:31:48.281Z,98104.54
2022-08-05T05:34:51.436Z,98110.31
2022-08-05T05:38:01.377Z,98113.11
2022-08-05T05:41:05.198Z,98116.23
2022-08-05T05:44:34.481Z,98114.64
2022-08-05T05:48:06.409Z,98114.36
2022-08-05T05:50:58.188Z,98118.80
2022-08-05T05:54:01.061Z,98113.79
2022-08-05T05:57:04.064Z,98112.45
2022-08-05T06:00:19.347Z,98107.40
2022-08-05T06:03:40.255Z,98108.15
2022-08-05T06:06:47.529Z,98103.49
2022-08-05T06:10:00.565Z,98101.64
2022-08-05T06:13:06.347Z,98100.11
2022-08-05T06:16:28.320Z,98097.88
2022-08-05T06:19:35.346Z,98094.27
2022-08-05T06:22:41.640Z,98099.30
2022-08-05T06:26:12.944Z,98105.91
2022-08-05T06:29:25.082Z,98109.70
2022-08-05T06:32:31.272Z,98112.07
2022-08-05T06:36:07.370Z,98111.88
2022-08-05T06:38:57.437Z,98110.98
2022-08-05T06:42:03.870Z,98109.41
2022-08-05T06:45:08.463Z,98114.36
2022-08-05T06:48:52.558Z,98116.04
2022-08-05T06:51:34.945Z,98113.97
2022-08-05T06:54:38.956Z,98116.14
2022-08-05T06:57:57.371Z,98107.46
2022-08-05T07:01:06.608Z,98105.06
2022-08-05T07:04:10.443Z,98103.41
2022-08-05T07:07:13.342Z,98101.42
2022-08-05T07:10:18.171Z,98103.99
2022-08-05T07:13:59.615Z,98099.30
2022-08-05T07:18:01.493Z,98102.94
2022-08-05T07:20:37.196Z,98099.31
2022-08-05T07:23:50.030Z,98099.20
2022-08-05T07:26:55.206Z,98097.98
2022-08-05T07:30:27.579Z,98100.94
2022-08-05T07:33:36.622Z,98106.96
2022-08-05T07:36:40.982Z,98105.89
2022-08-05T07:40:04.063Z,98104.27
2022-08-05T07:43:07.427Z,98102.44
2022-08-05T07:46:26.277Z,98095.89
2022-08-05T07:49:29.510Z,98097.92
2022-08-05T07:52:32.416Z,98097.76
2022-08-05T07:56:04.847Z,98101.13
2022-08-05T07:58:59.186Z,98103.39
2022-08-05T08:02:03.163Z,98103.15
2022-08-05T08:05:06.559Z,98102.70
2022-08-05T08:08:12.218Z,98105.02
2022-08-05T08:11:16.055Z,98107.34
2022-08-05T08:14:19.495Z,98109.55
2022-08-05T08:17:23.100Z,98109.97
2022-08-05T08:20:59.805Z,98106.62
2022-08-05T08:24:02.726Z,98103.06
2022-08-05T08:27:07.582Z,98102.00
2022-08-05T08:30:30.138Z,98105.52
2022-08-05T08:33:37.701Z,98106.39
2022-08-05T08:36:47.617Z,98107.77
2022-08-05T08:39:55.558Z,98109.96
2022-08-05T08:45:16.652Z,98109.61
2022-08-05T08:46:24.614Z,98111.86
2022-08-05T08:50:13.042Z,98110.95
2022-08-05T08:53:03.446Z,98111.90
2022-08-05T08:56:15.018Z,98111.70
2022-08-05T08:59:21.055Z,98104.88
2022-08-05T09:02:26.932Z,98099.39
2022-08-05T09:05:38.297Z,98101.68
2022-08-05T09:08:52.949Z,98101.98
2022-08-05T09:12:03.248Z,98103.27
2022-08-05T09:15:12.340Z,98099.60
2022-08-05T09:18:18.434Z,98097.55
2022-08-05T09:22:23.298Z,98090.75
2022-08-05T09:25:00.931Z,98088.55
2022-08-05T09:28:23.472Z,98086.48
2022-08-05T09:32:40.886Z,98084.23
2022-08-05T09:34:55.830Z,98078.85
2022-08-05T09:38:18.485Z,98081.03
2022-08-05T09:41:22.117Z,98078.97
2022-08-05T09:44:43.645Z,98073.17
2022-08-05T09:47:55.930Z,98069.58
2022-08-05T09:51:02.232Z,98066.38
2022-08-05T09:54:08.497Z,98069.27
2022-08-05T09:57:28.885Z,98072.75
2022-08-05T10:00:38.411Z,98070.51
2022-08-05T10:03:58.804Z,98069.61
2022-08-05T10:07:06.134Z,98067.20
2022-08-05T10:10:28.150Z,98065.96
2022-08-05T10:13:45.713Z,98057.17
2022-08-05T10:16:52.800Z,98057.42
2022-08-05T10:20:04.290Z,98058.28
2022-08-05T10:23:55.479Z,98059.98
2022-08-05T10:26:51.893Z,98061.10
2022-08-05T10:30:06.893Z,98058.02
2022-08-05T10:33:19.917Z,98053.54
2022-08-05T10:36:26.047Z,98051.77
2022-08-05T10:39:59.477Z,98048.83
2022-08-05T10:43:02.670Z,98049.80
2022-08-05T10:46:10.449Z,98050.08
2022-08-05T10:49:16.660Z,98048.35
2022-08-05T10:52:49.558Z,98046.42
2022-08-05T10:56:21.411Z,98044.41
2022-08-05T11:00:02.220Z,98044.98
2022-08-05T11:03:24.893Z,98046.31
2022-08-05T11:06:30.780Z,98041.92
2022-08-05T11:09:46.559Z,98040.58
2022-08-05T11:12:55.243Z,98040.90
2022-08-05T11:16:21.736Z,98044.45
2022-08-05T11:20:10.449Z,98045.21
2022-08-05T11:22:54.831Z,98038.02
2022-08-05T11:26:11.967Z,98041.17
2022-08-05T11:29:37.306Z,98037.77
2022-08-05T11:32:40.398Z,98033.25
2022-08-05T11:36:02.881Z,98033.50
2022-08-05T11:39:13.537Z,98032.23
2022-08-05T11:42:22.473Z,98036.27
2022-08-05T11:46:27.089Z,98042.21
2022-08-05T11:48:55.771Z,98030.77
2022-08-05T11:52:11.413Z,98032.60
2022-08-05T11:55:15.528Z,98037.33
2022-08-05T11:58:40.818Z,98033.73
2022-08-05T12:02:24.034Z,98034.59
2022-08-05T12:05:32.363Z,98033.65
2022-08-05T12:08:48.016Z,98027.79
2022-08-05T12:11:54.772Z,98026.31
2022-08-05T12:14:57.778Z,98033.32
2022-08-05T12:18:09.887Z,98027.99
2022-08-05T12:21:17.331Z,98026.40
2022-08-05T12:24:21.450Z,98020.29
2022-08-05T12:27:32.664Z,98019.94
2022-08-05T12:30:38.626Z,98015.88
2022-08-05T12:33:49.212Z,98018.85
2022-08-05T12:36:53.753Z,98012.85
2022-08-05T12:40:03.260Z,98013.11
2022-08-05T12:43:20.565Z,98004.43
2022-08-05T12:46:28.933Z,98001.08
2022-08-05T12:50:02.253Z,98005.11
2022-08-05T12:53:09.706Z,97995.89
2022-08-05T12:56:34.307Z,97991.98
2022-08-05T13:01:57.890Z,97994.16
2022-08-05T13:03:18.451Z,97990.95
2022-08-05T13:06:21.398Z,97988.64
2022-08-05T13:09:27.890Z,97984.81
2022-08-05T13:12:31.631Z,97980.64
2022-08-05T13:15:35.891Z,97981.84
2022-08-05T13:18:58.413Z,97981.83
2022-08-05T13:22:01.693Z,97981.77
2022-08-05T13:25:19.034Z,97978.92
2022-08-05T13:28:24.740Z,97975.09
2022-08-05T13:31:33.929Z,97977.44
2022-08-05T13:34:52.075Z,97979.19
2022-08-05T13:37:55.745Z,97976.34
2022-08-05T13:41:00.201Z,97980.20
2022-08-05T13:44:03.745Z,97974.49
2022-08-05T13:47:09.091Z,97974.73
2022-08-05T13:50:29.735Z,97973.66
2022-08-05T13:53:33.580Z,97971.27
2022-08-05T13:56:52.037Z,97973.58
2022-08-05T13:59:57.694Z,97971.27
2022-08-05T14:03:12.279Z,97964.62
2022-08-05T14:06:26.212Z,97965.98
2022-08-05T14:09:29.967Z,97961.58
2022-08-05T14:12:33.075Z,97962.33
2022-08-05T14:16:07.313Z,97953.27
2022-08-05T14:19:04.628Z,97958.60
2022-08-05T14:22:11.359Z,97952.59
2022-08-05T14:25:19.047Z,97956.04
2022-08-05T14:28:26.987Z,97952.70
2022-08-05T14:32:03.296Z,97952.21
2022-08-05T14:34:53.858Z,97948.20
2022-08-05T14:38:00.987Z,97946.89
2022-08-05T14:41:06.016Z,97944.98
2022-08-05T14:44:20.585Z,97944.59
2022-08-05T14:48:02.947Z,97938.92
2022-08-05T14:50:48.088Z,97944.30
2022-08-05T14:54:25.846Z,97943.86
2022-08-05T14:57:15.557Z,97945.48
2022-08-05T15:00:21.447Z,97950.81
2022-08-05T15:03:34.017Z,97945.39
2022-08-05T15:06:42.085Z,97941.77
2022-08-05T15:09:54.464Z,97937.92
2022-08-05T15:13:03.389Z,97936.38
2022-08-05T15:16:06.958Z,97938.77
2022-08-05T15:19:23.305Z,97936.64
2022-08-05T15:22:28.203Z,97933.41
2022-08-05T15:25:41.336Z,97935.70
2022-08-05T15:28:54.495Z,97929.00
2022-08-05T15:32:02.151Z,97928.50
2022-08-05T15:35:09.999Z,97922.63
2022-08-05T15:38:36.020Z,97920.66
2022-08-05T15:41:58.549Z,97919.13
2022-08-05T15:45:01.592Z,97918.26
2022-08-05T15:48:04.905Z,97913.04
2022-08-05T15:51:09.858Z,97911.12
2022-08-05T15:54:15.141Z,97911.91
2022-08-05T15:57:19.893Z,97912.62
2022-08-05T16:00:26.518Z,97913.20
2022-08-05T16:03:35.710Z,97910.27
2022-08-05T16:06:44.201Z,97906.59
2022-08-05T16:09:48.691Z,97909.59
2022-08-05T16:12:51.651Z,97911.54
2022-08-05T16:15:55.406Z,97906.52
2022-08-05T16:18:58.432Z,97909.46
2022-08-05T16:22:04.098Z,97913.92
2022-08-05T16:25:09.558Z,97918.20
2022-08-05T16:28:13.731Z,97915.13
2022-08-05T16:31:18.555Z,97918.27
2022-08-05T16:34:22.870Z,97914.21
2022-08-05T16:38:03.293Z,97911.41
2022-08-05T16:40:55.209Z,97907.27
2022-08-05T16:43:58.852Z,97903.33
2022-08-05T16:47:02.310Z,97901.54
2022-08-05T16:50:06.449Z,97898.24
2022-08-05T16:53:12.347Z,97902.46
2022-08-05T16:56:16.092Z,97897.88
2022-08-05T16:59:18.926Z,97895.91
2022-08-05T17:02:23.645Z,97895.94
2022-08-05T17:05:31.726Z,97897.33
2022-08-05T17:08:51.833Z,97900.88
2022-08-05T17:11:59.422Z,97898.16
2022-08-05T17:15:03.683Z,97892.20
2022-08-05T17:18:06.598Z,97893.23
2022-08-05T17:21:17.453Z,97896.54
2022-08-05T17:24:35.010Z,97901.06
2022-08-05T17:27:41.950Z,97898.70
2022-08-05T17:30:50.648Z,97899.52
2022-08-05T17:33:56.023Z,97897.90
2022-08-05T17:37:00.883Z,97897.14
2022-08-05T17:40:10.990Z,97900.06
2022-08-05T17:43:15.719Z,97904.70
2022-08-05T17:46:20.314Z,97902.05
2022-08-05T17:49:24.015Z,97902.91
2022-08-05T17:52:29.276Z,97906.95
2022-08-05T17:55:38.081Z,97907.30
2022-08-05T17:58:43.346Z,97910.09
2022-08-05T18:01:50.417Z,97913.20
2022-08-05T18:04:55.131Z,97917.04
2022-08-05T18:07:58.209Z,97913.55
2022-08-05T18:11:03.179Z,97919.46
2022-08-05T18:14:13.390Z,97918.96
2022-08-05T18:18:01.597Z,97915.65
2022-08-05T18:20:46.883Z,97919.84
2022-08-05T18:23:53.922Z,97924.70
2022-08-05T18:26:57.098Z,97927.85
2022-08-05T18:30:01.122Z,97927.89
2022-08-05T18:33:04.122Z,97928.67
2022-08-05T18:36:15.137Z,97934.65
2022-08-05T18:39:42.399Z,97931.79
2022-08-05T18:42:41.528Z,97931.55
2022-08-05T18:45:44.761Z,97930.95
2022-08-05T18:48:52.026Z,97929.88
2022-08-05T18:52:13.762Z,97930.91
2022-08-05T18:55:17.820Z,97933.00
2022-08-05T18:58:27.169Z,97933.40
2022-08-05T19:01:47.200Z,97935.40
2022-08-05T19:05:01.516Z,97939.45
2022-08-05T19:08:15.400Z,97940.42
2022-08-05T19:11:28.450Z,97940.23
2022-08-05T19:15:00.799Z,97941.70
2022-08-05T19:18:09.090Z,97941.08
2022-08-05T19:21:12.875Z,97942.10
2022-08-05T19:24:15.787Z,97941.94
2022-08-05T19:27:19.140Z,97943.37
2022-08-05T19:30:22.550Z,97946.73
2022-08-05T19:33:35.391Z,97945.98
2022-08-05T19:36:39.424Z,97945.97
2022-08-05T19:39:51.435Z,97948.79
2022-08-05T19:43:04.597Z,97955.13
2022-08-05T19:46:29.446Z,97953.23
2022-08-05T19:49:31.864Z,97953.63
2022-08-05T19:52:34.858Z,97948.38
2022-08-05T19:56:15.640Z,97951.34
2022-08-05T19:59:54.889Z,97952.25
2022-08-05T20:02:30.470Z,97956.84
2022-08-05T20:05:50.398Z,97957.29
2022-08-05T20:08:54.882Z,97962.19
2022-08-05T20:11:59.259Z,97957.77
2022-08-05T20:15:06.812Z,97954.13
2022-08-05T20:18:34.018Z,97955.85
2022-08-05T20:21:38.388Z,97952.40
2022-08-05T20:24:41.462Z,97952.94
2022-08-05T20:27:45.037Z,97956.44
2022-08-05T20:30:47.982Z,97955.45
2022-08-05T20:33:52.665Z,97958.77
2022-08-05T20:36:56.929Z,97954.25
2022-08-05T20:40:00.358Z,97959.55
2022-08-05T20:43:04.645Z,97960.56
2022-08-05T20:46:10.251Z,97958.43
2022-08-05T20:49:24.152Z,97955.95
2022-08-05T20:52:29.049Z,97954.80
2022-08-05T20:55:56.479Z,97957.70
2022-08-05T20:58:54.961Z,97958.90
2022-08-05T21:01:58.183Z,97957.33
2022-08-05T21:05:02.642Z,97952.39
2022-08-05T21:08:05.651Z,97958.39
2022-08-05T21:11:11.574Z,97961.23
2022-08-05T21:14:15.049Z,97967.45
2022-08-05T21:17:18.101Z,97965.31
2022-08-05T21:20:32.627Z,97968.89
2022-08-05T21:23:37.502Z,97972.72
2022-08-05T21:26:43.347Z,97974.17
2022-08-05T21:29:50.879Z,97975.77
2022-08-05T21:32:53.886Z,97977.36
2022-08-05T21:35:59.159Z,97980.06
2022-08-05T21:39:02.226Z,97978.40
2022-08-05T21:42:05.255Z,97971.28
2022-08-05T21:45:10.905Z,97972.57
2022-08-05T21:48:14.060Z,97971.49
2022-08-05T21:52:16.677Z,97968.50
2022-08-05T21:54:41.442Z,97974.54
2022-08-05T21:57:44.698Z,97970.98
2022-08-05T22:00:51.107Z,97972.54
2022-08-05T22:03:54.635Z,97971.29
2022-08-05T22:06:57.465Z,97974.19
2022-08-05T22:10:00.380Z,97969.91
2022-08-05T22:13:08.867Z,97969.47
2022-08-05T22:16:51.011Z,97965.98
2022-08-05T22:20:02.180Z,97963.85
2022-08-05T22:24:01.694Z,97973.02
2022-08-05T22:27:10.930Z,97973.23
2022-08-05T22:30:19.562Z,97972.98
2022-08-05T22:33:57.880Z,97977.14
2022-08-05T22:36:45.818Z,97976.36
2022-08-05T22:39:51.126Z,97975.08
2022-08-05T22:42:58.503Z,97969.14
2022-08-05T22:46:07.265Z,97970.63
2022-08-05T22:50:17.597Z,97972.11
2022-08-05T22:52:38.702Z,97971.95
2022-08-05T22:55:56.749Z,97969.23
2022-08-05T22:59:04.181Z,97970.40
2022-08-05T23:02:29.193Z,97966.91
2022-08-05T23:05:36.126Z,97966.20
2022-08-05T23:08:39.126Z,97964.70
2022-08-05T23:11:46.663Z,97955.48
2022-08-05T23:14:53.073Z,97951.48
2022-08-05T23:18:00.510Z,97945.34
2022-08-05T23:21:05.657Z,97944.67
2022-08-05T23:24:13.073Z,97943.48
2022-08-05T23:27:16.845Z,97948.23
2022-08-05T23:30:26.937Z,97947.95
2022-08-05T23:34:04.361Z,97949.98
2022-08-05T23:36:54.875Z,97949.59
2022-08-05T23:39:57.829Z,97955.70
2022-08-05T23:43:00.738Z,97975.91
2022-08-05T23:46:19.807Z,97986.04
2022-08-05T23:49:34.088Z,97985.38
2022-08-05T23:52:49.781Z,97981.91
2022-08-05T23:55:53.590Z,97990.32
2022-08-05T23:58:58.723Z,98004.39
